sensor_id;sensor_type;location;lat;lon;timestamp;pressure;altitude;pressure_sealevel;temperature;humidity
12073;BME280;6098;49.004;8.372;2023-05-25T00:06:16;100821.02;;;13.40;54.30
12073;BME280;6098;49.004;8.372;2023-05-25T00:21:09;100825.70;;;13.34;54.93
12073;BME280;6098;49.004;8.372;2023-05-25T00:36:00;100819.95;;;13.34;55.18
12073;BME280;6098;49.004;8.372;2023-05-25T00:50:53;100812.83;;;13.14;56.39
12073;BME280;6098;49.004;8.372;2023-05-25T01:05:44;100816.41;;;13.02;56.52
12073;BME280;6098;49.004;8.372;2023-05-25T01:20:36;100822.31;;;12.67;57.42
12073;BME280;6098;49.004;8.372;2023-05-25T01:35:28;100823.48;;;12.60;57.16
12073;BME280;6098;49.004;8.372;2023-05-25T02:05:18;100820.84;;;12.26;57.77
12073;BME280;6098;49.004;8.372;2023-05-25T02:20:09;100815.02;;;12.28;57.62
12073;BME280;6098;49.004;8.372;2023-05-25T02:35:04;100804.40;;;12.16;58.03
12073;BME280;6098;49.004;8.372;2023-05-25T02:49:55;100800.17;;;12.11;59.69
12073;BME280;6098;49.004;8.372;2023-05-25T03:04:47;100809.19;;;11.95;61.94
12073;BME280;6098;49.004;8.372;2023-05-25T03:19:40;100820.49;;;11.78;63.79
12073;BME280;6098;49.004;8.372;2023-05-25T03:34:32;100840.33;;;11.68;64.73
12073;BME280;6098;49.004;8.372;2023-05-25T03:49:23;100863.90;;;11.51;65.59
12073;BME280;6098;49.004;8.372;2023-05-25T04:04:15;100858.86;;;11.44;66.46
12073;BME280;6098;49.004;8.372;2023-05-25T04:19:08;100859.45;;;11.39;66.99
12073;BME280;6098;49.004;8.372;2023-05-25T04:34:01;100869.72;;;11.49;67.20
12073;BME280;6098;49.004;8.372;2023-05-25T04:48:52;100880.84;;;11.60;67.09
12073;BME280;6098;49.004;8.372;2023-05-25T05:03:44;100896.86;;;11.70;67.08
12073;BME280;6098;49.004;8.372;2023-05-25T05:18:38;100898.31;;;11.92;66.21
12073;BME280;6098;49.004;8.372;2023-05-25T05:33:30;100914.95;;;12.09;64.83
12073;BME280;6098;49.004;8.372;2023-05-25T05:48:24;100924.70;;;12.33;62.64
12073;BME280;6098;49.004;8.372;2023-05-25T06:03:16;100945.55;;;12.67;61.33
12073;BME280;6098;49.004;8.372;2023-05-25T06:18:09;100942.23;;;13.07;60.12
12073;BME280;6098;49.004;8.372;2023-05-25T06:33:02;100954.73;;;13.48;57.85
12073;BME280;6098;49.004;8.372;2023-05-25T06:47:54;100960.20;;;13.96;56.85
12073;BME280;6098;49.004;8.372;2023-05-25T07:02:46;100964.24;;;14.35;56.78
12073;BME280;6098;49.004;8.372;2023-05-25T07:17:44;100943.44;;;14.72;56.04
12073;BME280;6098;49.004;8.372;2023-05-25T07:32:39;100942.44;;;15.20;55.31
12073;BME280;6098;49.004;8.372;2023-05-25T07:47:33;100940.86;;;15.70;54.32
12073;BME280;6098;49.004;8.372;2023-05-25T08:02:25;100936.16;;;16.17;53.28
12073;BME280;6098;49.004;8.372;2023-05-25T08:17:18;100935.92;;;16.78;52.51
12073;BME280;6098;49.004;8.372;2023-05-25T08:32:10;100927.39;;;17.11;51.46
12073;BME280;6098;49.004;8.372;2023-05-25T08:47:05;100946.88;;;17.52;51.34
12073;BME280;6098;49.004;8.372;2023-05-25T09:02:01;100939.03;;;18.01;50.76
12073;BME280;6098;49.004;8.372;2023-05-25T09:16:49;100939.20;;;18.41;50.49
12073;BME280;6098;49.004;8.372;2023-05-25T09:31:44;100937.70;;;18.79;50.50
12073;BME280;6098;49.004;8.372;2023-05-25T09:46:36;100946.32;;;19.19;48.97
12073;BME280;6098;49.004;8.372;2023-05-25T10:01:31;100940.41;;;19.47;46.91
12073;BME280;6098;49.004;8.372;2023-05-25T10:16:28;100954.02;;;19.78;45.38
12073;BME280;6098;49.004;8.372;2023-05-25T10:31:21;100945.59;;;20.15;45.10
12073;BME280;6098;49.004;8.372;2023-05-25T10:46:13;100939.53;;;20.50;43.51
12073;BME280;6098;49.004;8.372;2023-05-25T11:01:06;100934.45;;;20.71;43.22
12073;BME280;6098;49.004;8.372;2023-05-25T11:46:15;100926.34;;;22.31;40.88
12073;BME280;6098;49.004;8.372;2023-05-25T12:01:19;100908.58;;;22.89;39.49
12073;BME280;6098;49.004;8.372;2023-05-25T12:16:15;100914.53;;;23.42;38.28
12073;BME280;6098;49.004;8.372;2023-05-25T12:31:19;100902.88;;;23.89;37.42
12073;BME280;6098;49.004;8.372;2023-05-25T12:46:22;100903.33;;;23.94;37.94
12073;BME280;6098;49.004;8.372;2023-05-25T13:01:08;100890.71;;;24.35;36.65
12073;BME280;6098;49.004;8.372;2023-05-25T13:16:02;100886.61;;;25.10;36.52
12073;BME280;6098;49.004;8.372;2023-05-25T13:30:56;100889.73;;;25.30;35.83
12073;BME280;6098;49.004;8.372;2023-05-25T13:45:52;100872.88;;;25.31;35.92
12073;BME280;6098;49.004;8.372;2023-05-25T14:01:00;100868.30;;;26.18;35.65
12073;BME280;6098;49.004;8.372;2023-05-25T14:16:10;100854.37;;;26.67;35.28
12073;BME280;6098;49.004;8.372;2023-05-25T14:31:06;100850.59;;;27.27;33.23
12073;BME280;6098;49.004;8.372;2023-05-25T14:46:01;100849.98;;;27.60;33.03
12073;BME280;6098;49.004;8.372;2023-05-25T15:00:58;100859.34;;;27.57;33.39
12073;BME280;6098;49.004;8.372;2023-05-25T15:15:55;100854.86;;;27.43;33.52
12073;BME280;6098;49.004;8.372;2023-05-25T15:30:52;100853.31;;;28.83;32.30
12073;BME280;6098;49.004;8.372;2023-05-25T15:46:06;100854.25;;;29.28;31.49
12073;BME280;6098;49.004;8.372;2023-05-25T16:01:14;100839.67;;;29.64;30.62
12073;BME280;6098;49.004;8.372;2023-05-25T16:16:07;100842.28;;;29.25;31.28
12073;BME280;6098;49.004;8.372;2023-05-25T16:30:52;100838.19;;;27.20;33.19
12073;BME280;6098;49.004;8.372;2023-05-25T16:45:39;100829.44;;;25.84;34.71
12073;BME280;6098;49.004;8.372;2023-05-25T17:00:29;100833.59;;;25.26;35.98
12073;BME280;6098;49.004;8.372;2023-05-25T17:15:22;100835.83;;;24.97;37.21
12073;BME280;6098;49.004;8.372;2023-05-25T17:30:13;100834.38;;;24.93;36.83
12073;BME280;6098;49.004;8.372;2023-05-25T17:45:11;100825.73;;;28.43;31.54
12073;BME280;6098;49.004;8.372;2023-05-25T18:00:05;100837.59;;;25.74;34.46
12073;BME280;6098;49.004;8.372;2023-05-25T18:14:55;100851.40;;;24.65;35.96
12073;BME280;6098;49.004;8.372;2023-05-25T18:29:49;100848.44;;;24.07;37.29
12073;BME280;6098;49.004;8.372;2023-05-25T18:44:38;100864.45;;;23.58;38.90
12073;BME280;6098;49.004;8.372;2023-05-25T18:59:34;100863.38;;;23.12;40.77
12073;BME280;6098;49.004;8.372;2023-05-25T19:14:25;100872.35;;;22.58;42.70
12073;BME280;6098;49.004;8.372;2023-05-25T19:29:18;100891.36;;;22.24;43.91
12073;BME280;6098;49.004;8.372;2023-05-25T19:44:12;100904.83;;;21.84;45.33
12073;BME280;6098;49.004;8.372;2023-05-25T19:59:07;100904.10;;;21.47;46.87
12073;BME280;6098;49.004;8.372;2023-05-25T20:29:04;100914.83;;;20.93;48.68
12073;BME280;6098;49.004;8.372;2023-05-25T20:43:55;100928.22;;;20.64;49.83
12073;BME280;6098;49.004;8.372;2023-05-25T20:58:52;100942.71;;;20.37;50.92
12073;BME280;6098;49.004;8.372;2023-05-25T21:13:41;100955.47;;;20.09;51.84
12073;BME280;6098;49.004;8.372;2023-05-25T21:28:33;100970.45;;;19.87;52.63
12073;BME280;6098;49.004;8.372;2023-05-25T21:43:25;100982.31;;;19.64;52.98
12073;BME280;6098;49.004;8.372;2023-05-25T21:58:17;100994.23;;;19.46;53.13
12073;BME280;6098;49.004;8.372;2023-05-25T22:13:09;101002.13;;;19.28;53.99
12073;BME280;6098;49.004;8.372;2023-05-25T22:28:12;101014.13;;;19.02;54.39
12073;BME280;6098;49.004;8.372;2023-05-25T22:43:05;101032.36;;;18.83;55.06
12073;BME280;6098;49.004;8.372;2023-05-25T22:57:55;101034.34;;;18.59;55.38
12073;BME280;6098;49.004;8.372;2023-05-25T23:12:47;101044.63;;;18.30;56.34
12073;BME280;6098;49.004;8.372;2023-05-25T23:27:39;101059.13;;;18.04;57.36
12073;BME280;6098;49.004;8.372;2023-05-25T23:42:35;101054.77;;;17.79;58.37
12073;BME280;6098;49.004;8.372;2023-05-25T23:57:22;101067.91;;;17.53;59.45
